Time,TemperatureF,DewpointF,PressureIn,WindDirection,WindDirectionDegrees,WindSpeedMPH,WindSpeedGustMPH,Humidity,HourlyPrecipIn,Conditions,Clouds,dailyrainin,SoftwareType,DateUTC
2013-08-06 00:00:00,76.0,69.8,29.88,SSW,203,4.0,6.0,81,0.00,,,0.00,WUHU216HW,2013-08-06 04:00:00,
2013-08-06 00:01:00,76.0,69.8,29.88,SSW,203,4.0,6.0,81,0.00,,,0.00,WUHU216HW,2013-08-06 04:01:00,
2013-08-06 00:06:00,76.0,70.1,29.88,SSW,203,3.6,6.0,82,0.00,,,0.00,WUHU216HW,2013-08-06 04:06:00,
2013-08-06 00:11:00,76.0,70.1,29.88,SSW,203,2.5,6.9,82,0.00,,,0.00,WUHU216HW,2013-08-06 04:11:00,
2013-08-06 00:16:00,76.0,69.8,29.88,WSW,248,5.1,7.6,81,0.00,,,0.00,WUHU216HW,2013-08-06 04:16:00,
2013-08-06 00:21:00,76.0,69.8,29.88,South,180,4.0,9.4,81,0.00,,,0.00,WUHU216HW,2013-08-06 04:21:00,
2013-08-06 00:26:00,76.0,69.8,29.87,SSE,158,1.8,9.4,81,0.00,,,0.00,WUHU216HW,2013-08-06 04:26:00,
2013-08-06 00:31:00,75.8,69.6,29.87,WSW,248,2.5,8.5,81,0.00,,,0.00,WUHU216HW,2013-08-06 04:31:00,
2013-08-06 00:36:00,75.6,69.1,29.88,SSW,203,4.7,7.2,80,0.00,,,0.00,WUHU216HW,2013-08-06 04:36:00,
2013-08-06 00:41:00,75.6,69.1,29.88,SSW,203,3.1,6.7,80,0.00,,,0.00,WUHU216HW,2013-08-06 04:41:00,
2013-08-06 00:46:00,75.6,69.1,29.88,South,180,4.7,6.7,80,0.00,,,0.00,WUHU216HW,2013-08-06 04:46:00,
2013-08-06 00:51:00,75.6,68.7,29.88,SSW,203,6.0,6.0,79,0.00,,,0.00,WUHU216HW,2013-08-06 04:51:00,
2013-08-06 00:56:00,75.4,68.5,29.88,East,90,6.3,6.5,79,0.00,,,0.00,WUHU216HW,2013-08-06 04:56:00,
2013-08-06 01:01:00,75.4,68.5,29.88,SW,225,2.5,6.9,79,0.00,,,0.00,WUHU216HW,2013-08-06 05:01:00,
2013-08-06 01:06:00,75.4,68.1,29.89,SSW,203,8.1,8.1,78,0.00,,,0.00,WUHU216HW,2013-08-06 05:06:00,
2013-08-06 01:11:00,75.4,68.1,29.89,SSW,203,3.6,8.1,78,0.00,,,0.00,WUHU216HW,2013-08-06 05:11:00,
2013-08-06 01:16:00,75.2,67.6,29.89,SSW,203,4.9,8.1,77,0.00,,,0.00,WUHU216HW,2013-08-06 05:16:00,
2013-08-06 01:21:00,75.2,67.6,29.89,SSW,203,5.1,7.2,77,0.00,,,0.00,WUHU216HW,2013-08-06 05:21:00,
2013-08-06 01:26:00,75.2,67.1,29.89,SSE,158,3.6,7.6,76,0.00,,,0.00,WUHU216HW,2013-08-06 05:26:00,
2013-08-06 01:31:00,75.2,67.1,29.89,SSW,203,3.4,7.8,76,0.00,,,0.00,WUHU216HW,2013-08-06 05:31:00,
2013-08-06 01:36:00,75.1,67.0,29.89,SW,225,2.2,8.3,76,0.00,,,0.00,WUHU216HW,2013-08-06 05:36:00,
2013-08-06 01:41:00,75.1,67.0,29.89,SSW,203,2.7,8.3,76,0.00,,,0.00,WUHU216HW,2013-08-06 05:41:00,
2013-08-06 01:46:00,74.9,66.4,29.89,SSW,203,3.4,6.3,75,0.00,,,0.00,WUHU216HW,2013-08-06 05:46:00,
2013-08-06 01:51:00,74.7,66.2,29.89,SSW,203,5.8,5.8,75,0.00,,,0.00,WUHU216HW,2013-08-06 05:51:00,
2013-08-06 01:57:00,74.7,66.2,29.89,SSE,158,3.1,7.2,75,0.00,,,0.00,WUHU216HW,2013-08-06 05:57:00,
2013-08-06 02:02:00,74.5,66.1,29.89,SSW,203,2.0,7.2,75,0.00,,,0.00,WUHU216HW,2013-08-06 06:02:00,
2013-08-06 02:07:00,74.3,66.3,29.89,SW,225,2.7,6.9,76,0.00,,,0.00,WUHU216HW,2013-08-06 06:07:00,
2013-08-06 02:12:00,74.2,66.2,29.88,SSW,203,10.5,10.5,76,0.00,,,0.00,WUHU216HW,2013-08-06 06:12:00,
2013-08-06 02:17:00,74.2,65.8,29.88,SW,225,5.4,10.5,75,0.00,,,0.00,WUHU216HW,2013-08-06 06:17:00,
2013-08-06 02:22:00,74.2,65.8,29.88,SW,225,7.2,7.2,75,0.00,,,0.00,WUHU216HW,2013-08-06 06:22:00,
2013-08-06 02:27:00,74.2,65.8,29.88,SSW,203,7.6,7.6,75,0.00,,,0.00,WUHU216HW,2013-08-06 06:27:00,
2013-08-06 02:32:00,74.2,65.8,29.88,SSW,203,8.3,11.2,75,0.00,,,0.00,WUHU216HW,2013-08-06 06:32:00,
2013-08-06 02:37:00,74.2,65.8,29.88,SSW,203,3.4,11.2,75,0.00,,,0.00,WUHU216HW,2013-08-06 06:37:00,
2013-08-06 02:42:00,74.2,65.8,29.88,SW,225,7.2,8.3,75,0.00,,,0.00,WUHU216HW,2013-08-06 06:42:00,
2013-08-06 02:47:00,74.2,65.8,29.88,SW,225,4.7,9.4,75,0.00,,,0.00,WUHU216HW,2013-08-06 06:47:00,
2013-08-06 02:52:00,74.2,65.8,29.87,SSW,203,7.8,9.4,75,0.00,,,0.00,WUHU216HW,2013-08-06 06:52:00,
2013-08-06 02:57:00,74.0,65.6,29.87,West,270,4.0,7.8,75,0.00,,,0.00,WUHU216HW,2013-08-06 06:57:00,
2013-08-06 03:02:00,74.0,65.6,29.87,SSW,203,6.3,7.6,75,0.00,,,0.00,WUHU216HW,2013-08-06 07:02:00,
2013-08-06 03:07:00,73.8,65.4,29.87,SSW,203,4.0,6.5,75,0.00,,,0.00,WUHU216HW,2013-08-06 07:07:00,
2013-08-06 03:12:00,73.8,65.4,29.87,SSW,203,3.6,6.9,75,0.00,,,0.00,WUHU216HW,2013-08-06 07:12:00,
2013-08-06 03:17:00,73.8,65.4,29.87,SE,135,2.5,6.9,75,0.00,,,0.00,WUHU216HW,2013-08-06 07:17:00,
2013-08-06 03:22:00,73.8,65.8,29.87,SSW,203,1.8,6.7,76,0.00,,,0.00,WUHU216HW,2013-08-06 07:22:00,
2013-08-06 03:27:00,73.6,65.6,29.87,SSW,203,1.8,4.5,76,0.00,,,0.00,WUHU216HW,2013-08-06 07:27:00,
2013-08-06 03:32:00,73.6,65.6,29.87,South,180,1.6,4.5,76,0.00,,,0.00,WUHU216HW,2013-08-06 07:32:00,
2013-08-06 03:37:00,73.4,65.8,29.86,SW,225,1.3,7.4,77,0.00,,,0.00,WUHU216HW,2013-08-06 07:37:00,
2013-08-06 03:42:00,73.3,65.6,29.86,SW,225,1.8,7.4,77,0.00,,,0.00,WUHU216HW,2013-08-06 07:42:00,
2013-08-06 03:47:00,73.1,65.9,29.86,SSW,203,1.8,3.6,78,0.00,,,0.00,WUHU216HW,2013-08-06 07:47:00,
2013-08-06 03:52:00,72.7,65.5,29.86,SSW,203,2.5,4.5,78,0.00,,,0.00,WUHU216HW,2013-08-06 07:52:00,
2013-08-06 03:57:00,72.7,65.5,29.86,South,180,4.9,6.0,78,0.00,,,0.00,WUHU216HW,2013-08-06 07:57:00,
2013-08-06 04:02:00,72.5,65.4,29.86,SSW,203,3.4,6.0,78,0.00,,,0.00,WUHU216HW,2013-08-06 08:02:00,
2013-08-06 04:07:00,72.5,65.7,29.86,SSW,203,3.8,6.0,79,0.00,,,0.00,WUHU216HW,2013-08-06 08:07:00,
2013-08-06 04:12:00,72.5,65.7,29.86,SW,225,4.3,4.5,79,0.00,,,0.00,WUHU216HW,2013-08-06 08:12:00,
2013-08-06 04:17:00,72.5,65.7,29.86,SSW,203,1.8,5.6,79,0.00,,,0.00,WUHU216HW,2013-08-06 08:17:00,
2013-08-06 04:22:00,72.4,64.7,29.86,SSW,203,1.6,5.6,77,0.00,,,0.00,WUHU216HW,2013-08-06 08:22:00,
2013-08-06 04:27:00,72.4,65.2,29.87,SSW,203,0.4,2.7,78,0.00,,,0.00,WUHU216HW,2013-08-06 08:27:00,
2013-08-06 04:32:00,72.4,65.5,29.87,NE,45,2.5,2.5,79,0.00,,,0.00,WUHU216HW,2013-08-06 08:32:00,
2013-08-06 04:37:00,72.0,66.3,29.87,East,90,4.7,4.7,82,0.00,,,0.00,WUHU216HW,2013-08-06 08:37:00,
2013-08-06 04:42:00,71.3,66.2,29.87,NE,45,1.6,5.4,84,0.00,,,0.00,WUHU216HW,2013-08-06 08:42:00,
2013-08-06 04:47:00,70.9,66.5,29.87,NE,45,4.7,5.4,86,0.04,,,0.04,WUHU216HW,2013-08-06 08:47:00,
2013-08-06 04:52:00,70.2,66.4,29.87,NNE,23,5.6,8.1,88,0.09,,,0.09,WUHU216HW,2013-08-06 08:52:00,
2013-08-06 04:57:00,69.7,66.6,29.88,NNE,23,3.4,8.1,90,0.18,,,0.18,WUHU216HW,2013-08-06 08:57:00,
2013-08-06 05:02:00,69.5,66.4,29.89,NNE,23,1.8,7.2,90,0.23,,,0.23,WUHU216HW,2013-08-06 09:02:00,
2013-08-06 05:07:00,69.1,66.1,29.88,ENE,68,0.2,7.2,90,0.35,,,0.35,WUHU216HW,2013-08-06 09:07:00,
2013-08-06 05:12:00,68.9,65.9,29.88,ENE,68,2.2,4.5,90,0.54,,,0.54,WUHU216HW,2013-08-06 09:12:00,
2013-08-06 05:17:00,68.8,66.0,29.88,NNE,23,0.4,3.4,91,0.72,,,0.72,WUHU216HW,2013-08-06 09:17:00,
2013-08-06 05:22:00,68.8,66.0,29.88,NNE,23,0.4,3.4,91,0.76,,,0.76,WUHU216HW,2013-08-06 09:22:00,
2013-08-06 05:27:00,68.6,65.8,29.88,ENE,68,0.0,2.7,91,0.83,,,0.83,WUHU216HW,2013-08-06 09:27:00,
2013-08-06 05:32:00,68.6,65.8,29.88,ENE,68,0.0,2.2,91,0.86,,,0.86,WUHU216HW,2013-08-06 09:32:00,
2013-08-06 05:37:00,68.4,65.6,29.88,ENE,68,1.1,1.8,91,0.98,,,0.98,WUHU216HW,2013-08-06 09:37:00,
2013-08-06 05:42:00,68.4,65.6,29.88,ENE,68,0.2,1.8,91,1.06,,,1.06,WUHU216HW,2013-08-06 09:42:00,
2013-08-06 05:47:00,68.4,65.6,29.88,ENE,68,1.1,1.8,91,1.16,,,1.20,WUHU216HW,2013-08-06 09:47:00,
2013-08-06 05:52:00,68.4,65.6,29.88,NE,45,1.1,2.5,91,1.17,,,1.26,WUHU216HW,2013-08-06 09:52:00,
2013-08-06 05:57:00,68.4,65.6,29.88,ENE,68,0.2,2.5,91,1.07,,,1.26,WUHU216HW,2013-08-06 09:57:00,
2013-08-06 06:02:00,68.4,65.6,29.88,East,90,0.4,1.6,91,1.03,,,1.26,WUHU216HW,2013-08-06 10:02:00,
2013-08-06 06:07:00,68.4,66.0,29.88,ENE,68,0.4,1.3,92,0.92,,,1.28,WUHU216HW,2013-08-06 10:07:00,
2013-08-06 06:12:00,68.4,66.0,29.88,ENE,68,0.0,0.7,92,0.75,,,1.30,WUHU216HW,2013-08-06 10:12:00,
2013-08-06 06:17:00,68.4,66.0,29.88,ENE,68,0.0,0.4,92,0.58,,,1.30,WUHU216HW,2013-08-06 10:17:00,
2013-08-06 06:22:00,68.4,65.6,29.88,SW,225,0.9,2.2,91,0.56,,,1.33,WUHU216HW,2013-08-06 10:22:00,
2013-08-06 06:27:00,68.4,65.6,29.88,SW,225,0.0,2.2,91,0.59,,,1.42,WUHU216HW,2013-08-06 10:27:00,
2013-08-06 06:32:00,68.4,66.0,29.88,NNW,338,0.4,1.6,92,0.64,,,1.50,WUHU216HW,2013-08-06 10:32:00,
2013-08-06 06:37:00,68.4,66.0,29.88,SSW,203,0.9,0.9,92,0.60,,,1.58,WUHU216HW,2013-08-06 10:37:00,
2013-08-06 06:42:00,68.4,66.0,29.88,SSW,203,0.2,1.1,92,0.63,,,1.69,WUHU216HW,2013-08-06 10:42:00,
2013-08-06 06:47:00,68.4,66.0,29.88,SSW,203,0.7,1.6,92,0.50,,,1.70,WUHU216HW,2013-08-06 10:47:00,
2013-08-06 06:52:00,68.4,66.0,29.89,SW,225,0.4,1.6,92,0.45,,,1.71,WUHU216HW,2013-08-06 10:52:00,
2013-08-06 06:57:00,68.4,66.0,29.89,SSW,203,0.0,1.8,92,0.46,,,1.72,WUHU216HW,2013-08-06 10:57:00,
2013-08-06 07:02:00,68.4,66.0,29.89,SSW,203,1.6,1.8,92,0.46,,,1.72,WUHU216HW,2013-08-06 11:02:00,
2013-08-06 07:07:00,68.4,66.0,29.89,SSW,203,0.0,2.7,92,0.44,,,1.72,WUHU216HW,2013-08-06 11:07:00,
2013-08-06 07:12:00,68.6,66.2,29.89,SSW,203,0.0,2.7,92,0.42,,,1.72,WUHU216HW,2013-08-06 11:12:00,
2013-08-06 07:17:00,68.6,66.2,29.89,SSW,203,0.0,0.4,92,0.42,,,1.72,WUHU216HW,2013-08-06 11:17:00,
2013-08-06 07:22:00,68.6,66.2,29.89,SSW,203,0.0,0.0,92,0.39,,,1.72,WUHU216HW,2013-08-06 11:22:00,
2013-08-06 07:27:00,68.8,66.3,29.89,SSW,203,0.0,0.4,92,0.30,,,1.72,WUHU216HW,2013-08-06 11:27:00,
2013-08-06 07:32:00,68.8,66.3,29.89,ESE,113,0.4,0.7,92,0.22,,,1.72,WUHU216HW,2013-08-06 11:32:00,
2013-08-06 07:37:00,68.9,66.5,29.90,ESE,113,0.0,0.9,92,0.14,,,1.72,WUHU216HW,2013-08-06 11:37:00,
2013-08-06 07:42:00,69.1,66.7,29.90,SE,135,0.4,1.1,92,0.03,,,1.72,WUHU216HW,2013-08-06 11:42:00,
2013-08-06 07:47:00,69.1,66.7,29.90,SE,135,0.4,1.1,92,0.02,,,1.72,WUHU216HW,2013-08-06 11:47:00,
2013-08-06 07:52:00,69.1,66.7,29.90,NE,45,0.0,0.9,92,0.01,,,1.72,WUHU216HW,2013-08-06 11:52:00,
2013-08-06 07:57:00,69.3,66.9,29.90,ENE,68,0.4,0.9,92,0.00,,,1.72,WUHU216HW,2013-08-06 11:57:00,
2013-08-06 08:02:00,69.3,66.9,29.91,South,180,1.1,1.6,92,0.00,,,1.72,WUHU216HW,2013-08-06 12:02:00,
2013-08-06 08:07:00,69.3,66.9,29.91,NE,45,1.8,1.8,92,0.00,,,1.72,WUHU216HW,2013-08-06 12:07:00,
2013-08-06 08:12:00,69.3,67.1,29.91,NE,45,0.0,1.8,93,0.00,,,1.72,WUHU216HW,2013-08-06 12:12:00,
2013-08-06 08:17:00,69.1,67.0,29.91,NE,45,0.2,1.8,93,0.00,,,1.72,WUHU216HW,2013-08-06 12:17:00,
2013-08-06 08:22:00,69.3,67.1,29.91,NE,45,0.4,0.4,93,0.00,,,1.72,WUHU216HW,2013-08-06 12:22:00,
2013-08-06 08:27:00,69.3,67.1,29.91,NE,45,0.0,0.4,93,0.00,,,1.72,WUHU216HW,2013-08-06 12:27:00,
2013-08-06 08:32:00,69.5,67.3,29.91,NE,45,0.2,0.4,93,0.00,,,1.72,WUHU216HW,2013-08-06 12:32:00,
2013-08-06 08:37:00,69.5,67.3,29.91,South,180,0.7,0.9,93,0.00,,,1.72,WUHU216HW,2013-08-06 12:37:00,
2013-08-06 08:42:00,69.7,67.5,29.91,South,180,0.4,1.1,93,0.00,,,1.72,WUHU216HW,2013-08-06 12:42:00,
2013-08-06 08:47:00,69.8,67.7,29.91,East,90,0.4,1.1,93,0.00,,,1.72,WUHU216HW,2013-08-06 12:47:00,
2013-08-06 08:52:00,70.0,67.9,29.91,East,90,0.0,2.0,93,0.00,,,1.72,WUHU216HW,2013-08-06 12:52:00,
2013-08-06 08:58:00,70.2,68.0,29.91,East,90,0.0,2.0,93,0.00,,,1.72,WUHU216HW,2013-08-06 12:58:00,
2013-08-06 09:03:00,70.4,68.2,29.92,East,90,0.4,1.8,93,0.00,,,1.72,WUHU216HW,2013-08-06 13:03:00,
2013-08-06 09:08:00,70.2,68.0,29.92,ENE,68,0.9,1.8,93,0.00,,,1.72,WUHU216HW,2013-08-06 13:08:00,
2013-08-06 09:13:00,70.2,68.0,29.92,ENE,68,0.0,1.8,93,0.00,,,1.72,WUHU216HW,2013-08-06 13:13:00,
2013-08-06 09:18:00,70.2,68.0,29.92,ENE,68,0.4,1.1,93,0.00,,,1.72,WUHU216HW,2013-08-06 13:18:00,
2013-08-06 09:23:00,70.2,68.0,29.92,ENE,68,0.0,1.1,93,0.00,,,1.72,WUHU216HW,2013-08-06 13:23:00,
2013-08-06 09:28:00,70.2,68.0,29.92,ENE,68,0.4,1.1,93,0.00,,,1.72,WUHU216HW,2013-08-06 13:28:00,
2013-08-06 09:33:00,70.4,68.2,29.93,ENE,68,0.7,1.6,93,0.00,,,1.72,WUHU216HW,2013-08-06 13:33:00,
2013-08-06 09:38:00,70.6,68.4,29.93,ENE,68,0.2,1.6,93,0.00,,,1.72,WUHU216HW,2013-08-06 13:38:00,
2013-08-06 09:43:00,70.6,68.4,29.93,ENE,68,0.7,1.1,93,0.00,,,1.72,WUHU216HW,2013-08-06 13:43:00,
2013-08-06 09:48:00,70.6,68.4,29.93,ENE,68,0.0,1.6,93,0.00,,,1.72,WUHU216HW,2013-08-06 13:48:00,
2013-08-06 09:53:00,70.9,68.8,29.92,ENE,68,0.0,1.6,93,0.00,,,1.72,WUHU216HW,2013-08-06 13:53:00,
2013-08-06 09:58:00,71.1,68.9,29.93,ENE,68,0.0,0.4,93,0.00,,,1.72,WUHU216HW,2013-08-06 13:58:00,
2013-08-06 10:03:00,71.3,69.1,29.93,ENE,68,0.2,0.7,93,0.00,,,1.72,WUHU216HW,2013-08-06 14:03:00,
2013-08-06 10:08:00,71.3,69.1,29.93,ENE,68,0.4,0.7,93,0.00,,,1.72,WUHU216HW,2013-08-06 14:08:00,
2013-08-06 10:13:00,71.5,69.3,29.93,South,180,0.4,1.1,93,0.00,,,1.72,WUHU216HW,2013-08-06 14:13:00,
2013-08-06 10:18:00,71.8,69.7,29.93,South,180,0.0,1.1,93,0.00,,,1.72,WUHU216HW,2013-08-06 14:18:00,
2013-08-06 10:23:00,72.4,70.2,29.93,South,180,0.4,0.7,93,0.00,,,1.72,WUHU216HW,2013-08-06 14:23:00,
2013-08-06 10:28:00,72.7,70.6,29.93,SSW,203,1.1,1.8,93,0.00,,,1.72,WUHU216HW,2013-08-06 14:28:00,
2013-08-06 10:33:00,72.9,70.7,29.93,SSW,203,2.5,3.1,93,0.00,,,1.72,WUHU216HW,2013-08-06 14:33:00,
2013-08-06 10:38:00,73.1,70.7,29.93,SSW,203,2.2,4.0,92,0.00,,,1.72,WUHU216HW,2013-08-06 14:38:00,
2013-08-06 10:43:00,73.1,70.7,29.93,SSW,203,2.5,4.7,92,0.00,,,1.72,WUHU216HW,2013-08-06 14:43:00,
2013-08-06 10:48:00,73.3,70.8,29.93,SSW,203,2.0,5.6,92,0.00,,,1.72,WUHU216HW,2013-08-06 14:48:00,
2013-08-06 10:53:00,73.8,71.4,29.93,SE,135,4.0,5.6,92,0.00,,,1.72,WUHU216HW,2013-08-06 14:53:00,
2013-08-06 10:58:00,74.2,71.7,29.93,SSW,203,3.4,6.9,92,0.00,,,1.72,WUHU216HW,2013-08-06 14:58:00,
2013-08-06 11:03:00,74.5,71.7,29.93,SSE,158,3.4,6.9,91,0.00,,,1.72,WUHU216HW,2013-08-06 15:03:00,
2013-08-06 11:08:00,74.7,71.6,29.93,SW,225,1.8,6.7,90,0.00,,,1.72,WUHU216HW,2013-08-06 15:08:00,
2013-08-06 11:13:00,75.2,72.2,29.93,SSW,203,3.4,6.3,90,0.00,,,1.72,WUHU216HW,2013-08-06 15:13:00,
2013-08-06 11:18:00,75.6,72.2,29.93,SW,225,4.0,4.5,89,0.00,,,1.72,WUHU216HW,2013-08-06 15:18:00,
2013-08-06 11:23:00,76.0,72.5,29.93,SSW,203,1.8,4.5,89,0.00,,,1.72,WUHU216HW,2013-08-06 15:23:00,
2013-08-06 11:28:00,76.0,72.2,29.93,South,180,1.3,5.1,88,0.00,,,1.72,WUHU216HW,2013-08-06 15:28:00,
2013-08-06 11:33:00,76.0,72.2,29.93,SSW,203,3.1,5.4,88,0.00,,,1.72,WUHU216HW,2013-08-06 15:33:00,
2013-08-06 11:38:00,76.3,72.5,29.93,SSW,203,1.1,5.4,88,0.00,,,1.72,WUHU216HW,2013-08-06 15:38:00,
2013-08-06 11:43:00,77.0,73.3,29.93,SSW,203,0.4,3.8,88,0.00,,,1.72,WUHU216HW,2013-08-06 15:43:00,
2013-08-06 11:48:00,77.8,73.3,29.93,SSW,203,2.5,4.7,86,0.00,,,1.72,WUHU216HW,2013-08-06 15:48:00,
2013-08-06 11:53:00,77.9,73.1,29.93,SSW,203,1.6,4.7,85,0.00,,,1.72,WUHU216HW,2013-08-06 15:53:00,
2013-08-06 11:58:00,78.1,73.6,29.93,SSW,203,0.9,3.8,86,0.00,,,1.72,WUHU216HW,2013-08-06 15:58:00,
2013-08-06 12:03:00,78.1,72.9,29.93,SSW,203,1.3,4.0,84,0.00,,,1.72,WUHU216HW,2013-08-06 16:03:00,
2013-08-06 12:08:00,78.3,73.4,29.93,SW,225,1.1,4.0,85,0.00,,,1.72,WUHU216HW,2013-08-06 16:08:00,
2013-08-06 12:13:00,78.8,74.0,29.93,SSW,203,0.4,3.1,85,0.00,,,1.72,WUHU216HW,2013-08-06 16:13:00,
2013-08-06 12:18:00,79.2,74.0,29.93,South,180,1.3,2.5,84,0.00,,,1.72,WUHU216HW,2013-08-06 16:18:00,
2013-08-06 12:23:00,79.0,73.8,29.93,SSW,203,2.5,3.4,84,0.00,,,1.72,WUHU216HW,2013-08-06 16:23:00,
2013-08-06 12:28:00,78.8,73.6,29.93,SW,225,2.7,3.4,84,0.00,,,1.72,WUHU216HW,2013-08-06 16:28:00,
2013-08-06 12:33:00,78.5,73.3,29.93,South,180,0.4,3.4,84,0.00,,,1.72,WUHU216HW,2013-08-06 16:33:00,
2013-08-06 12:38:00,78.5,73.3,29.93,SE,135,0.0,3.1,84,0.00,,,1.72,WUHU216HW,2013-08-06 16:38:00,
2013-08-06 12:43:00,78.8,73.6,29.93,SW,225,1.3,2.7,84,0.00,,,1.72,WUHU216HW,2013-08-06 16:43:00,
2013-08-06 12:48:00,79.4,74.5,29.93,SW,225,0.2,2.7,85,0.00,,,1.72,WUHU216HW,2013-08-06 16:48:00,
2013-08-06 12:53:00,80.3,75.0,29.93,SSW,203,1.8,1.8,84,0.00,,,1.72,WUHU216HW,2013-08-06 16:53:00,
2013-08-06 12:58:00,81.0,75.3,29.93,SW,225,1.8,2.2,83,0.00,,,1.72,WUHU216HW,2013-08-06 16:58:00,
2013-08-06 13:03:00,81.4,75.7,29.93,SW,225,0.4,2.2,83,0.00,,,1.72,WUHU216HW,2013-08-06 17:03:00,
2013-08-06 13:08:00,81.5,75.9,29.93,SW,225,0.9,2.2,83,0.00,,,1.72,WUHU216HW,2013-08-06 17:08:00,
2013-08-06 13:13:00,81.7,75.8,29.93,SSW,203,3.8,3.8,82,0.00,,,1.72,WUHU216HW,2013-08-06 17:13:00,
2013-08-06 13:18:00,81.5,75.6,29.93,SSW,203,0.2,3.8,82,0.00,,,1.72,WUHU216HW,2013-08-06 17:18:00,
2013-08-06 13:23:00,82.3,76.3,29.93,South,180,2.7,3.8,82,0.00,,,1.72,WUHU216HW,2013-08-06 17:23:00,
2013-08-06 13:27:00,83.0,77.0,29.93,SW,225,1.6,3.4,82,0.00,,,1.72,WUHU216HW,2013-08-06 17:27:00,
2013-08-06 13:32:00,84.4,77.9,29.93,SSW,203,2.5,3.4,81,0.00,,,1.72,WUHU216HW,2013-08-06 17:32:00,
2013-08-06 13:37:00,85.0,77.0,29.92,SSW,203,2.5,5.6,77,0.00,,,1.72,WUHU216HW,2013-08-06 17:37:00,
2013-08-06 13:42:00,85.1,77.1,29.92,SSW,203,1.3,5.6,77,0.00,,,1.72,WUHU216HW,2013-08-06 17:42:00,
2013-08-06 13:47:00,85.9,77.0,29.92,NNE,23,0.4,3.1,75,0.00,,,1.72,WUHU216HW,2013-08-06 17:47:00,
2013-08-06 13:52:00,86.9,78.5,29.92,SSW,203,2.5,2.7,76,0.00,,,1.72,WUHU216HW,2013-08-06 17:52:00,
2013-08-06 13:57:00,87.3,78.4,29.92,NW,315,0.9,2.7,75,0.00,,,1.72,WUHU216HW,2013-08-06 17:57:00,
2013-08-06 14:02:00,87.8,78.1,29.93,NNE,23,1.6,3.4,73,0.00,,,1.72,WUHU216HW,2013-08-06 18:02:00,
2013-08-06 14:07:00,87.8,77.7,29.92,SSE,158,0.4,3.4,72,0.00,,,1.72,WUHU216HW,2013-08-06 18:07:00,
2013-08-06 14:12:00,86.2,75.4,29.92,NE,45,0.9,4.3,70,0.00,,,1.72,WUHU216HW,2013-08-06 18:12:00,
2013-08-06 14:17:00,85.5,75.5,29.92,North,0,0.4,4.3,72,0.00,,,1.72,WUHU216HW,2013-08-06 18:17:00,
2013-08-06 14:22:00,86.0,76.1,29.92,NNW,338,0.7,1.8,72,0.00,,,1.72,WUHU216HW,2013-08-06 18:22:00,
2013-08-06 14:27:00,86.8,76.7,29.92,South,180,0.7,1.8,72,0.00,,,1.72,WUHU216HW,2013-08-06 18:27:00,
2013-08-06 14:32:00,86.9,75.6,29.92,NE,45,0.4,1.8,69,0.00,,,1.72,WUHU216HW,2013-08-06 18:32:00,
2013-08-06 14:37:00,86.4,75.6,29.92,NNE,23,1.1,2.2,70,0.00,,,1.72,WUHU216HW,2013-08-06 18:37:00,
2013-08-06 14:42:00,85.3,74.1,29.91,NE,45,0.4,5.1,69,0.00,,,1.72,WUHU216HW,2013-08-06 18:42:00,
2013-08-06 14:47:00,84.6,74.2,29.91,ENE,68,1.3,5.1,71,0.00,,,1.72,WUHU216HW,2013-08-06 18:47:00,
2013-08-06 14:52:00,84.6,74.6,29.91,NE,45,1.1,2.9,72,0.00,,,1.72,WUHU216HW,2013-08-06 18:52:00,
2013-08-06 14:57:00,85.0,75.3,29.91,SSW,203,0.9,2.5,73,0.00,,,1.72,WUHU216HW,2013-08-06 18:57:00,
2013-08-06 15:02:00,86.2,75.8,29.91,North,0,2.5,4.0,71,0.00,,,1.72,WUHU216HW,2013-08-06 19:02:00,
2013-08-06 15:07:00,86.4,74.6,29.91,NE,45,4.7,4.9,68,0.00,,,1.72,WUHU216HW,2013-08-06 19:07:00,
2013-08-06 15:12:00,85.3,73.6,29.91,NNE,23,2.2,5.4,68,0.00,,,1.72,WUHU216HW,2013-08-06 19:12:00,
2013-08-06 15:17:00,84.2,73.0,29.90,NE,45,2.5,5.4,69,0.00,,,1.72,WUHU216HW,2013-08-06 19:17:00,
2013-08-06 15:22:00,83.7,73.3,29.91,NNW,338,1.3,5.1,71,0.00,,,1.72,WUHU216HW,2013-08-06 19:22:00,
2013-08-06 15:27:00,84.6,74.6,29.91,NW,315,1.1,4.0,72,0.00,,,1.72,WUHU216HW,2013-08-06 19:27:00,
2013-08-06 15:32:00,85.0,73.7,29.90,NE,45,2.0,4.3,69,0.00,,,1.72,WUHU216HW,2013-08-06 19:32:00,
2013-08-06 15:37:00,85.3,74.1,29.90,East,90,1.8,5.1,69,0.00,,,1.72,WUHU216HW,2013-08-06 19:37:00,
2013-08-06 15:42:00,85.7,74.4,29.90,ENE,68,1.6,5.8,69,0.00,,,1.72,WUHU216HW,2013-08-06 19:42:00,
2013-08-06 15:47:00,85.9,74.2,29.90,NNE,23,3.8,5.8,68,0.00,,,1.72,WUHU216HW,2013-08-06 19:47:00,
2013-08-06 15:52:00,85.5,73.8,29.90,ENE,68,4.7,5.6,68,0.00,,,1.72,WUHU216HW,2013-08-06 19:52:00,
2013-08-06 15:57:00,84.6,72.9,29.90,ENE,68,2.5,6.9,68,0.00,,,1.72,WUHU216HW,2013-08-06 19:57:00,
2013-08-06 16:02:00,85.9,74.6,29.90,NE,45,3.4,6.9,69,0.00,,,1.72,WUHU216HW,2013-08-06 20:02:00,
2013-08-06 16:07:00,86.0,73.8,29.90,NE,45,0.9,4.0,67,0.00,,,1.72,WUHU216HW,2013-08-06 20:07:00,
2013-08-06 16:12:00,85.7,73.5,29.90,ENE,68,3.1,4.0,67,0.00,,,1.72,WUHU216HW,2013-08-06 20:12:00,
2013-08-06 16:17:00,85.3,73.2,29.90,ENE,68,3.8,3.8,67,0.00,,,1.72,WUHU216HW,2013-08-06 20:17:00,
2013-08-06 16:22:00,85.5,73.4,29.90,East,90,3.1,4.5,67,0.00,,,1.72,WUHU216HW,2013-08-06 20:22:00,
2013-08-06 16:27:00,85.7,73.5,29.89,NE,45,2.5,4.5,67,0.00,,,1.72,WUHU216HW,2013-08-06 20:27:00,
2013-08-06 16:32:00,85.7,73.5,29.89,ENE,68,2.9,5.6,67,0.00,,,1.72,WUHU216HW,2013-08-06 20:32:00,
2013-08-06 16:37:00,86.2,74.0,29.89,ENE,68,0.7,5.6,67,0.00,,,1.72,WUHU216HW,2013-08-06 20:37:00,
2013-08-06 16:42:00,86.8,74.1,29.89,NE,45,2.5,5.4,66,0.00,,,1.72,WUHU216HW,2013-08-06 20:42:00,
2013-08-06 16:47:00,85.9,73.2,29.89,NE,45,4.5,6.3,66,0.00,,,1.72,WUHU216HW,2013-08-06 20:47:00,
2013-08-06 16:52:00,85.0,72.8,29.89,ENE,68,2.5,6.3,67,0.00,,,1.72,WUHU216HW,2013-08-06 20:52:00,
2013-08-06 16:57:00,84.6,72.5,29.89,East,90,2.5,5.4,67,0.00,,,1.72,WUHU216HW,2013-08-06 20:57:00,
2013-08-06 17:02:00,84.6,73.4,29.89,NE,45,1.3,5.4,69,0.00,,,1.72,WUHU216HW,2013-08-06 21:02:00,
2013-08-06 17:07:00,84.6,72.5,29.89,NE,45,1.1,5.4,67,0.00,,,1.72,WUHU216HW,2013-08-06 21:07:00,
2013-08-06 17:12:00,85.5,73.8,29.89,North,0,1.3,5.4,68,0.00,,,1.72,WUHU216HW,2013-08-06 21:12:00,
2013-08-06 17:17:00,87.1,74.3,29.89,East,90,1.8,4.7,66,0.00,,,1.72,WUHU216HW,2013-08-06 21:17:00,
2013-08-06 17:22:00,87.7,74.0,29.90,NE,45,5.6,5.6,64,0.00,,,1.72,WUHU216HW,2013-08-06 21:22:00,
2013-08-06 17:27:00,86.6,73.5,29.89,NE,45,3.8,5.6,65,0.00,,,1.72,WUHU216HW,2013-08-06 21:27:00,
2013-08-06 17:32:00,85.9,73.2,29.90,ESE,113,3.4,5.6,66,0.00,,,1.72,WUHU216HW,2013-08-06 21:32:00,
2013-08-06 17:37:00,85.0,72.8,29.90,NE,45,3.8,4.9,67,0.00,,,1.72,WUHU216HW,2013-08-06 21:37:00,
2013-08-06 17:42:00,85.0,72.8,29.90,ENE,68,3.8,4.9,67,0.00,,,1.72,WUHU216HW,2013-08-06 21:42:00,
2013-08-06 17:47:00,84.6,72.9,29.89,East,90,2.5,4.7,68,0.00,,,1.72,WUHU216HW,2013-08-06 21:47:00,
2013-08-06 17:52:00,84.1,72.4,29.89,NE,45,1.6,4.7,68,0.00,,,1.72,WUHU216HW,2013-08-06 21:52:00,
2013-08-06 17:57:00,83.9,73.1,29.89,NNE,23,2.0,4.0,70,0.00,,,1.72,WUHU216HW,2013-08-06 21:57:00,
2013-08-06 18:02:00,84.1,73.3,29.90,NE,45,2.0,4.9,70,0.00,,,1.72,WUHU216HW,2013-08-06 22:02:00,
2013-08-06 18:07:00,83.9,72.6,29.90,SSE,158,2.2,5.6,69,0.00,,,1.72,WUHU216HW,2013-08-06 22:07:00,
2013-08-06 18:12:00,83.2,72.8,29.90,NE,45,2.5,5.6,71,0.00,,,1.72,WUHU216HW,2013-08-06 22:12:00,
2013-08-06 18:17:00,83.0,73.0,29.90,ESE,113,2.0,4.9,72,0.00,,,1.72,WUHU216HW,2013-08-06 22:17:00,
2013-08-06 18:22:00,82.4,72.5,29.90,WNW,293,1.1,3.4,72,0.00,,,1.72,WUHU216HW,2013-08-06 22:22:00,
2013-08-06 18:27:00,82.1,72.5,29.91,NE,45,2.2,3.4,73,0.00,,,1.72,WUHU216HW,2013-08-06 22:27:00,
2013-08-06 18:32:00,81.9,72.0,29.91,North,0,4.0,6.3,72,0.00,,,1.72,WUHU216HW,2013-08-06 22:32:00,
2013-08-06 18:37:00,81.7,71.8,29.91,NE,45,2.7,6.3,72,0.00,,,1.72,WUHU216HW,2013-08-06 22:37:00,
2013-08-06 18:42:00,81.5,72.0,29.91,East,90,2.7,5.1,73,0.00,,,1.72,WUHU216HW,2013-08-06 22:42:00,
2013-08-06 18:47:00,81.4,71.9,29.91,East,90,1.8,4.9,73,0.00,,,1.72,WUHU216HW,2013-08-06 22:47:00,
2013-08-06 18:52:00,81.0,71.9,29.91,East,90,1.1,5.8,74,0.00,,,1.72,WUHU216HW,2013-08-06 22:52:00,
2013-08-06 18:57:00,80.8,71.7,29.91,East,90,1.8,5.8,74,0.00,,,1.72,WUHU216HW,2013-08-06 22:57:00,
2013-08-06 19:02:00,80.3,71.6,29.91,NNE,23,1.6,4.3,75,0.00,,,1.72,WUHU216HW,2013-08-06 23:02:00,
2013-08-06 19:07:00,79.7,71.1,29.90,ENE,68,1.3,4.0,75,0.00,,,1.72,WUHU216HW,2013-08-06 23:07:00,
2013-08-06 19:12:00,79.2,70.9,29.91,ENE,68,2.0,4.3,76,0.00,,,1.72,WUHU216HW,2013-08-06 23:12:00,
2013-08-06 19:17:00,78.5,71.0,29.91,ESE,113,3.1,4.3,78,0.00,,,1.72,WUHU216HW,2013-08-06 23:17:00,
2013-08-06 19:22:00,78.1,70.7,29.91,NNE,23,0.4,4.0,78,0.00,,,1.72,WUHU216HW,2013-08-06 23:22:00,
2013-08-06 19:27:00,77.8,70.8,29.90,ESE,113,2.7,4.0,79,0.00,,,1.72,WUHU216HW,2013-08-06 23:27:00,
2013-08-06 19:32:00,77.6,70.6,29.90,ENE,68,0.0,3.6,79,0.00,,,1.72,WUHU216HW,2013-08-06 23:32:00,
2013-08-06 19:37:00,77.6,70.9,29.90,East,90,0.4,3.4,80,0.00,,,1.72,WUHU216HW,2013-08-06 23:37:00,
2013-08-06 19:42:00,77.4,70.7,29.91,North,0,0.2,3.4,80,0.00,,,1.72,WUHU216HW,2013-08-06 23:42:00,
2013-08-06 19:47:00,77.2,70.6,29.91,East,90,0.4,2.5,80,0.00,,,1.72,WUHU216HW,2013-08-06 23:47:00,
2013-08-06 19:52:00,77.0,70.4,29.91,East,90,2.9,3.4,80,0.00,,,1.72,WUHU216HW,2013-08-06 23:52:00,
2013-08-06 19:57:00,76.7,70.4,29.91,ENE,68,1.3,3.4,81,0.00,,,1.72,WUHU216HW,2013-08-06 23:57:00,
2013-08-06 20:02:00,76.5,70.3,29.91,East,90,0.7,2.9,81,0.00,,,1.72,WUHU216HW,2013-08-07 00:02:00,
2013-08-06 20:07:00,76.3,70.5,29.91,East,90,1.6,2.5,82,0.00,,,1.72,WUHU216HW,2013-08-07 00:07:00,
2013-08-06 20:12:00,76.0,70.1,29.91,ESE,113,0.4,2.5,82,0.00,,,1.72,WUHU216HW,2013-08-07 00:12:00,
2013-08-06 20:17:00,76.0,70.5,29.91,SSE,158,4.3,4.3,83,0.00,,,1.72,WUHU216HW,2013-08-07 00:17:00,
2013-08-06 20:22:00,75.8,70.7,29.92,ESE,113,2.9,4.5,84,0.00,,,1.72,WUHU216HW,2013-08-07 00:22:00,
2013-08-06 20:27:00,75.6,70.5,29.91,ENE,68,0.4,4.5,84,0.00,,,1.72,WUHU216HW,2013-08-07 00:27:00,
2013-08-06 20:32:00,75.4,70.3,29.91,NNE,23,1.8,4.5,84,0.00,,,1.72,WUHU216HW,2013-08-07 00:32:00,
2013-08-06 20:37:00,75.2,70.1,29.92,SSW,203,0.7,4.5,84,0.00,,,1.72,WUHU216HW,2013-08-07 00:37:00,
2013-08-06 20:42:00,75.2,70.1,29.92,ENE,68,1.3,2.7,84,0.00,,,1.72,WUHU216HW,2013-08-07 00:42:00,
2013-08-06 20:47:00,75.1,70.3,29.92,NE,45,2.2,2.2,85,0.00,,,1.72,WUHU216HW,2013-08-07 00:47:00,
2013-08-06 20:52:00,74.9,70.1,29.92,SSW,203,0.4,2.2,85,0.00,,,1.72,WUHU216HW,2013-08-07 00:52:00,
2013-08-06 20:57:00,74.7,69.9,29.92,ENE,68,1.1,2.9,85,0.00,,,1.72,WUHU216HW,2013-08-07 00:57:00,
2013-08-06 21:03:00,74.5,70.1,29.93,East,90,0.4,2.9,86,0.00,,,1.72,WUHU216HW,2013-08-07 01:03:00,
2013-08-06 21:08:00,74.3,69.9,29.93,ENE,68,1.6,2.7,86,0.00,,,1.72,WUHU216HW,2013-08-07 01:08:00,
2013-08-06 21:13:00,74.2,69.8,29.93,NE,45,1.8,3.4,86,0.00,,,1.72,WUHU216HW,2013-08-07 01:13:00,
2013-08-06 21:18:00,74.2,69.8,29.93,ESE,113,0.2,3.4,86,0.00,,,1.72,WUHU216HW,2013-08-07 01:18:00,
2013-08-06 21:23:00,74.2,69.8,29.93,East,90,0.7,2.2,86,0.00,,,1.72,WUHU216HW,2013-08-07 01:23:00,
2013-08-06 21:28:00,74.2,69.8,29.93,ENE,68,0.4,2.2,86,0.00,,,1.72,WUHU216HW,2013-08-07 01:28:00,
2013-08-06 21:33:00,74.2,69.8,29.94,NE,45,0.4,1.1,86,0.00,,,1.72,WUHU216HW,2013-08-07 01:33:00,
2013-08-06 21:38:00,74.2,69.8,29.93,SSW,203,0.0,1.6,86,0.00,,,1.72,WUHU216HW,2013-08-07 01:38:00,
2013-08-06 21:43:00,74.0,69.6,29.94,East,90,0.0,1.6,86,0.00,,,1.72,WUHU216HW,2013-08-07 01:43:00,
2013-08-06 21:48:00,74.0,69.6,29.94,North,0,0.2,1.3,86,0.00,,,1.72,WUHU216HW,2013-08-07 01:48:00,
2013-08-06 21:53:00,73.8,69.4,29.94,SW,225,0.0,1.3,86,0.00,,,1.72,WUHU216HW,2013-08-07 01:53:00,
2013-08-06 21:58:00,73.8,69.4,29.94,ENE,68,1.6,1.6,86,0.00,,,1.72,WUHU216HW,2013-08-07 01:58:00,
2013-08-06 22:03:00,73.8,69.4,29.94,WSW,248,0.4,1.6,86,0.00,,,1.72,WUHU216HW,2013-08-07 02:03:00,
2013-08-06 22:08:00,73.8,69.4,29.94,ENE,68,0.4,1.6,86,0.00,,,1.72,WUHU216HW,2013-08-07 02:08:00,
2013-08-06 22:13:00,73.6,69.6,29.95,NNE,23,0.4,2.5,87,0.00,,,1.72,WUHU216HW,2013-08-07 02:13:00,
2013-08-06 22:18:00,73.6,69.6,29.95,ENE,68,0.2,2.5,87,0.00,,,1.72,WUHU216HW,2013-08-07 02:18:00,
2013-08-06 22:23:00,73.4,69.4,29.96,South,180,0.4,1.3,87,0.00,,,1.72,WUHU216HW,2013-08-07 02:23:00,
2013-08-06 22:28:00,73.4,69.4,29.96,SW,225,0.2,1.1,87,0.00,,,1.72,WUHU216HW,2013-08-07 02:28:00,
2013-08-06 22:33:00,73.4,69.4,29.96,WSW,248,0.9,1.1,87,0.00,,,1.72,WUHU216HW,2013-08-07 02:33:00,
2013-08-06 22:38:00,73.4,69.4,29.96,NNW,338,0.2,0.9,87,0.00,,,1.72,WUHU216HW,2013-08-07 02:38:00,
2013-08-06 22:43:00,73.4,69.4,29.96,NNW,338,0.2,1.1,87,0.00,,,1.72,WUHU216HW,2013-08-07 02:43:00,
2013-08-06 22:48:00,73.3,69.2,29.96,SSW,203,0.2,1.3,87,0.00,,,1.72,WUHU216HW,2013-08-07 02:48:00,
2013-08-06 22:53:00,73.3,69.2,29.96,SSW,203,0.0,1.3,87,0.00,,,1.72,WUHU216HW,2013-08-07 02:53:00,
2013-08-06 22:58:00,73.3,69.2,29.96,SSW,203,0.0,0.4,87,0.00,,,1.72,WUHU216HW,2013-08-07 02:58:00,
2013-08-06 23:03:00,73.1,69.0,29.96,East,90,0.0,1.1,87,0.00,,,1.72,WUHU216HW,2013-08-07 03:03:00,
2013-08-06 23:08:00,73.1,69.3,29.96,East,90,0.0,1.1,88,0.00,,,1.72,WUHU216HW,2013-08-07 03:08:00,
2013-08-06 23:13:00,73.1,69.3,29.95,ESE,113,0.7,1.1,88,0.00,,,1.72,WUHU216HW,2013-08-07 03:13:00,
2013-08-06 23:18:00,73.1,69.0,29.95,ESE,113,0.4,0.9,87,0.00,,,1.72,WUHU216HW,2013-08-07 03:18:00,
2013-08-06 23:23:00,73.1,69.0,29.95,ESE,113,0.0,0.7,87,0.00,,,1.72,WUHU216HW,2013-08-07 03:23:00,
2013-08-06 23:28:00,72.9,68.9,29.95,ESE,113,0.0,0.7,87,0.00,,,1.72,WUHU216HW,2013-08-07 03:28:00,
2013-08-06 23:33:00,72.7,68.7,29.95,ESE,113,0.0,0.7,87,0.00,,,1.72,WUHU216HW,2013-08-07 03:33:00,
2013-08-06 23:38:00,72.7,68.7,29.95,ESE,113,0.0,0.4,87,0.00,,,1.72,WUHU216HW,2013-08-07 03:38:00,
2013-08-06 23:43:00,72.7,68.7,29.94,ESE,113,0.4,0.4,87,0.00,,,1.72,WUHU216HW,2013-08-07 03:43:00,
2013-08-06 23:48:00,72.5,68.8,29.95,ESE,113,0.4,1.1,88,0.00,,,1.72,WUHU216HW,2013-08-07 03:48:00,
2013-08-06 23:53:00,72.5,68.8,29.94,ESE,113,0.0,1.1,88,0.00,,,1.72,WUHU216HW,2013-08-07 03:53:00,
2013-08-06 23:58:00,72.7,68.9,29.94,ESE,113,0.9,0.9,88,0.00,,,1.72,WUHU216HW,2013-08-07 03:58:00,